createdAt,value
2018-05-26T00:01:33.587Z,100597.01
2018-05-26T00:04:01.353Z,100592.09
2018-05-26T00:06:29.120Z,100586.88
2018-05-26T00:08:57.072Z,100588.74
2018-05-26T00:11:24.854Z,100590.47
2018-05-26T00:13:52.718Z,100586.04
2018-05-26T00:16:20.484Z,100584.27
2018-05-26T00:18:48.347Z,100583.33
2018-05-26T00:21:16.110Z,100578.19
2018-05-26T00:23:43.826Z,100582.37
2018-05-26T00:26:11.542Z,100581.86
2018-05-26T00:28:39.359Z,100582.18
2018-05-26T00:31:07.170Z,100575.40
2018-05-26T00:33:34.939Z,100584.03
2018-05-26T00:36:02.636Z,100585.18
2018-05-26T00:38:30.452Z,100594.80
2018-05-26T00:40:58.228Z,100593.76
2018-05-26T00:43:26.709Z,100588.53
2018-05-26T00:45:54.372Z,100590.83
2018-05-26T00:48:22.095Z,100586.14
2018-05-26T00:50:49.800Z,100586.05
2018-05-26T00:53:17.561Z,100580.30
2018-05-26T00:55:45.331Z,100576.95
2018-05-26T00:58:13.193Z,100577.27
2018-05-26T01:00:40.959Z,100583.24
2018-05-26T01:03:08.772Z,100582.84
2018-05-26T01:05:36.587Z,100583.69
2018-05-26T01:08:04.455Z,100579.93
2018-05-26T01:10:32.110Z,100586.25
2018-05-26T01:12:59.839Z,100586.61
2018-05-26T01:15:27.539Z,100586.41
2018-05-26T01:17:55.252Z,100587.56
2018-05-26T01:20:22.968Z,100588.80
2018-05-26T01:22:50.684Z,100590.03
2018-05-26T01:25:18.399Z,100589.30
2018-05-26T01:27:46.143Z,100584.84
2018-05-26T01:30:13.929Z,100588.55
2018-05-26T01:32:41.749Z,100587.81
2018-05-26T01:35:09.559Z,100583.80
2018-05-26T01:37:37.427Z,100584.86
2018-05-26T01:40:05.150Z,100583.59
2018-05-26T01:42:32.954Z,100586.91
2018-05-26T01:45:00.720Z,100584.12
2018-05-26T01:47:28.996Z,100581.06
2018-05-26T01:49:56.657Z,100578.25
2018-05-26T01:52:24.423Z,100582.34
2018-05-26T01:54:52.126Z,100581.38
2018-05-26T01:57:19.849Z,100577.23
2018-05-26T01:59:47.717Z,100584.74
2018-05-26T02:02:15.484Z,100576.37
2018-05-26T02:04:43.142Z,100575.91
2018-05-26T02:07:10.907Z,100577.50
2018-05-26T02:09:38.628Z,100585.31
2018-05-26T02:12:06.442Z,100592.58
2018-05-26T02:14:34.099Z,100587.90
2018-05-26T02:17:01.803Z,100586.00
2018-05-26T02:19:29.628Z,100582.97
2018-05-26T02:21:57.391Z,100587.97
2018-05-26T02:24:25.289Z,100576.34
2018-05-26T02:26:53.024Z,100580.92
2018-05-26T02:29:20.789Z,100577.75
2018-05-26T02:31:48.552Z,100574.02
2018-05-26T02:34:16.318Z,100576.67
2018-05-26T02:36:44.038Z,100571.30
2018-05-26T02:39:11.849Z,100573.45
2018-05-26T02:41:39.507Z,100587.34
2018-05-26T02:44:07.273Z,100582.70
2018-05-26T02:46:34.935Z,100580.78
2018-05-26T02:49:02.700Z,100575.59
2018-05-26T02:51:30.464Z,100575.07
2018-05-26T02:53:58.229Z,100575.20
2018-05-26T02:56:25.890Z,100577.12
2018-05-26T02:58:53.616Z,100576.55
2018-05-26T03:01:21.419Z,100581.58
2018-05-26T03:03:48.627Z,100583.63
2018-05-26T03:06:21.898Z,100581.41
2018-05-26T03:08:55.153Z,100579.20
2018-05-26T03:11:28.500Z,100578.19
2018-05-26T03:14:01.747Z,100586.39
2018-05-26T03:16:35.031Z,100586.77
2018-05-26T03:19:02.813Z,100586.97
2018-05-26T03:21:30.524Z,100582.27
2018-05-26T03:23:58.334Z,100583.19
2018-05-26T03:26:25.996Z,100587.11
2018-05-26T03:28:53.658Z,100587.17
2018-05-26T03:31:21.436Z,100598.06
2018-05-26T03:33:49.290Z,100598.20
2018-05-26T03:36:17.067Z,100603.22
2018-05-26T03:38:44.884Z,100607.60
2018-05-26T03:41:12.629Z,100601.85
2018-05-26T03:43:40.443Z,100604.38
2018-05-26T03:46:08.160Z,100606.92
2018-05-26T03:48:35.977Z,100607.19
2018-05-26T03:51:03.743Z,100607.31
2018-05-26T03:53:31.509Z,100609.38
2018-05-26T03:56:11.049Z,100615.45
2018-05-26T03:58:50.797Z,100613.22
2018-05-26T04:01:18.560Z,100608.55
2018-05-26T04:03:46.324Z,100608.08
2018-05-26T04:06:14.043Z,100607.67
2018-05-26T04:08:41.955Z,100612.72
2018-05-26T04:11:09.720Z,100611.54
2018-05-26T04:13:37.586Z,100615.94
2018-05-26T04:16:05.309Z,100619.25
2018-05-26T04:18:33.120Z,100614.70
2018-05-26T04:21:00.819Z,100620.70
2018-05-26T04:23:28.647Z,100617.52
2018-05-26T04:25:56.409Z,100614.44
2018-05-26T04:28:24.071Z,100612.65
2018-05-26T04:30:51.940Z,100622.27
2018-05-26T04:33:19.702Z,100620.81
2018-05-26T04:35:47.569Z,100625.04
2018-05-26T04:38:15.293Z,100626.81
2018-05-26T04:40:43.054Z,100629.91
2018-05-26T04:43:10.863Z,100638.79
2018-05-26T04:45:38.627Z,100635.53
2018-05-26T04:48:06.330Z,100641.02
2018-05-26T04:50:34.053Z,100643.64
2018-05-26T04:53:01.818Z,100645.24
2018-05-26T04:55:29.582Z,100650.67
2018-05-26T04:57:57.298Z,100653.35
2018-05-26T05:00:25.117Z,100652.51
2018-05-26T05:02:52.775Z,100655.62
2018-05-26T05:05:20.499Z,100655.44
2018-05-26T05:07:48.303Z,100660.03
2018-05-26T05:10:16.060Z,100660.00
2018-05-26T05:12:43.733Z,100665.85
2018-05-26T05:15:11.495Z,100664.99
2018-05-26T05:17:39.209Z,100665.02
2018-05-26T05:20:07.024Z,100676.33
2018-05-26T05:22:34.893Z,100678.45
2018-05-26T05:25:02.786Z,100672.42
2018-05-26T05:27:30.420Z,100669.28
2018-05-26T05:29:58.184Z,100671.41
2018-05-26T05:32:25.974Z,100669.85
2018-05-26T05:34:53.816Z,100670.98
2018-05-26T05:37:21.583Z,100685.83
2018-05-26T05:39:49.339Z,100669.53
2018-05-26T05:42:17.010Z,100678.47
2018-05-26T05:44:44.871Z,100679.20
2018-05-26T05:47:12.589Z,100682.70
2018-05-26T05:49:40.403Z,100697.85
2018-05-26T05:52:08.122Z,100701.91
2018-05-26T05:54:35.930Z,100697.25
2018-05-26T05:57:03.655Z,100709.03
2018-05-26T05:59:31.358Z,100704.78
2018-05-26T06:01:59.023Z,100701.05
2018-05-26T06:04:26.785Z,100703.27
2018-05-26T06:06:56.412Z,100705.51
2018-05-26T06:09:25.708Z,100701.31
2018-05-26T06:11:53.763Z,100706.14
2018-05-26T06:14:23.260Z,100705.23
2018-05-26T06:16:51.494Z,100705.45
2018-05-26T06:19:19.828Z,100703.22
2018-05-26T06:21:48.203Z,100709.13
2018-05-26T06:24:17.380Z,100702.84
2018-05-26T06:26:45.165Z,100705.52
2018-05-26T06:29:12.929Z,100700.84
2018-05-26T06:31:40.810Z,100707.00
2018-05-26T06:34:08.766Z,100702.83
2018-05-26T06:36:36.478Z,100696.77
2018-05-26T06:39:04.867Z,100700.58
2018-05-26T06:41:32.676Z,100697.34
2018-05-26T06:44:00.441Z,100699.41
2018-05-26T06:46:28.170Z,100695.77
2018-05-26T06:48:55.971Z,100701.14
2018-05-26T06:51:23.789Z,100701.94
2018-05-26T06:53:51.497Z,100695.25
2018-05-26T06:56:19.238Z,100696.06
2018-05-26T06:58:47.026Z,100706.08
2018-05-26T07:01:14.846Z,100700.95
2018-05-26T07:03:42.659Z,100707.23
2018-05-26T07:06:10.479Z,100709.66
2018-05-26T07:08:38.291Z,100708.49
2018-05-26T07:11:06.057Z,100707.33
2018-05-26T07:13:33.780Z,100702.02
2018-05-26T07:16:01.582Z,100706.20
2018-05-26T07:18:29.347Z,100703.05
2018-05-26T07:20:57.114Z,100695.41
2018-05-26T07:23:24.875Z,100699.34
2018-05-26T07:25:52.741Z,100701.47
2018-05-26T07:28:20.509Z,100695.12
2018-05-26T07:30:48.373Z,100691.67
2018-05-26T07:33:16.139Z,100693.53
2018-05-26T07:35:44.005Z,100698.60
2018-05-26T07:38:11.770Z,100694.29
2018-05-26T07:40:39.637Z,100695.08
2018-05-26T07:43:07.359Z,100687.50
2018-05-26T07:45:35.063Z,100696.48
2018-05-26T07:48:02.835Z,100689.46
2018-05-26T07:50:30.695Z,100689.95
2018-05-26T07:52:58.464Z,100692.46
2018-05-26T07:55:26.224Z,100699.82
2018-05-26T07:57:53.928Z,100699.33
2018-05-26T08:00:21.653Z,100693.56
2018-05-26T08:02:49.415Z,100704.02
2018-05-26T08:05:17.137Z,100702.16
2018-05-26T08:07:44.840Z,100710.44
2018-05-26T08:10:12.606Z,100717.19
2018-05-26T08:12:40.372Z,100716.84
2018-05-26T08:15:08.081Z,100713.34
2018-05-26T08:17:35.900Z,100723.09
2018-05-26T08:20:03.562Z,100721.08
2018-05-26T08:22:31.281Z,100725.37
2018-05-26T08:24:59.092Z,100721.58
2018-05-26T08:27:26.858Z,100719.30
2018-05-26T08:29:54.722Z,100721.91
2018-05-26T08:32:22.424Z,100728.20
2018-05-26T08:34:50.241Z,100730.51
2018-05-26T08:37:17.913Z,100734.39
2018-05-26T08:39:45.681Z,100729.05
2018-05-26T08:42:13.550Z,100731.27
2018-05-26T08:44:41.412Z,100742.13
2018-05-26T08:47:09.076Z,100733.55
2018-05-26T08:49:36.894Z,100742.77
2018-05-26T08:52:04.707Z,100741.33
2018-05-26T08:54:32.431Z,100747.25
2018-05-26T08:57:00.295Z,100750.80
2018-05-26T08:59:28.102Z,100751.89
2018-05-26T09:01:55.867Z,100747.41
2018-05-26T09:04:23.529Z,100744.17
2018-05-26T09:06:51.403Z,100748.87
2018-05-26T09:09:19.109Z,100745.88
2018-05-26T09:11:46.925Z,100748.09
2018-05-26T09:14:14.665Z,100749.45
2018-05-26T09:16:42.455Z,100755.38
2018-05-26T09:19:10.174Z,100751.61
2018-05-26T09:21:37.985Z,100744.24
2018-05-26T09:24:05.708Z,100750.14
2018-05-26T09:26:33.513Z,100743.39
2018-05-26T09:29:01.277Z,100738.55
2018-05-26T09:31:29.144Z,100733.36
2018-05-26T09:33:56.810Z,100737.47
2018-05-26T09:36:24.777Z,100737.92
2018-05-26T09:38:52.487Z,100738.59
2018-05-26T09:41:20.196Z,100733.26
2018-05-26T09:43:48.013Z,100732.69
2018-05-26T09:46:15.833Z,100737.64
2018-05-26T09:48:43.701Z,100743.78
2018-05-26T09:51:11.467Z,100741.72
2018-05-26T09:53:39.233Z,100741.39
2018-05-26T09:56:07.140Z,100735.44
2018-05-26T09:58:34.965Z,100738.20
2018-05-26T10:01:02.692Z,100738.48
2018-05-26T10:03:30.657Z,100737.64
2018-05-26T10:05:58.467Z,100734.74
2018-05-26T10:08:26.122Z,100730.86
2018-05-26T10:10:53.890Z,100738.14
2018-05-26T10:13:21.654Z,100728.11
2018-05-26T10:15:49.522Z,100732.81
2018-05-26T10:18:17.286Z,100732.23
2018-05-26T10:20:45.104Z,100729.11
2018-05-26T10:23:12.917Z,100734.27
2018-05-26T10:25:40.675Z,100731.95
2018-05-26T10:28:08.446Z,100723.81
2018-05-26T10:30:36.147Z,100727.27
2018-05-26T10:33:03.867Z,100724.44
2018-05-26T10:35:31.648Z,100720.14
2018-05-26T10:37:59.404Z,100718.84
2018-05-26T10:40:27.268Z,100724.28
2018-05-26T10:42:55.033Z,100714.20
2018-05-26T10:45:34.573Z,100718.59
2018-05-26T10:48:02.337Z,100722.95
2018-05-26T10:50:30.417Z,100719.95
2018-05-26T10:52:58.482Z,100717.45
2018-05-26T10:55:26.235Z,100713.39
2018-05-26T10:57:53.907Z,100718.50
2018-05-26T11:00:21.773Z,100719.58
2018-05-26T11:02:49.538Z,100732.79
2018-05-26T11:05:17.405Z,100731.47
2018-05-26T11:07:45.068Z,100728.31
2018-05-26T11:10:13.037Z,100728.48
2018-05-26T11:12:40.802Z,100727.39
2018-05-26T11:15:08.656Z,100727.69
2018-05-26T11:17:36.384Z,100732.34
2018-05-26T11:20:04.093Z,100731.91
2018-05-26T11:22:31.809Z,100728.03
2018-05-26T11:24:59.624Z,100729.02
2018-05-26T11:27:27.279Z,100725.32
2018-05-26T11:29:55.091Z,100731.84
2018-05-26T11:32:22.916Z,100733.69
2018-05-26T11:34:50.684Z,100732.63
2018-05-26T11:37:18.588Z,100730.61
2018-05-26T11:39:46.304Z,100728.09
2018-05-26T11:42:13.967Z,100729.44
2018-05-26T11:44:41.648Z,100724.11
2018-05-26T11:47:09.506Z,100724.10
2018-05-26T11:49:37.223Z,100724.13
2018-05-26T11:52:04.934Z,100724.25
2018-05-26T11:54:32.798Z,100731.41
2018-05-26T11:57:00.563Z,100736.20
2018-05-26T11:59:28.267Z,100733.84
2018-05-26T12:01:56.116Z,100728.33
2018-05-26T12:04:23.857Z,100732.78
2018-05-26T12:06:51.514Z,100735.97
2018-05-26T12:09:19.181Z,100733.20
2018-05-26T12:11:47.049Z,100736.28
2018-05-26T12:14:14.812Z,100732.37
2018-05-26T12:16:42.473Z,100742.53
2018-05-26T12:19:10.181Z,100736.16
2018-05-26T12:21:37.999Z,100726.38
2018-05-26T12:24:05.768Z,100731.91
2018-05-26T12:26:33.606Z,100730.12
2018-05-26T12:29:01.399Z,100735.06
2018-05-26T12:31:29.118Z,100731.50
2018-05-26T12:33:56.931Z,100728.25
2018-05-26T12:36:24.794Z,100715.31
2018-05-26T12:38:52.518Z,100710.55
2018-05-26T12:41:20.324Z,100719.66
2018-05-26T12:43:48.029Z,100719.13
2018-05-26T12:46:15.853Z,100715.84
2018-05-26T12:48:43.622Z,100723.16
2018-05-26T12:51:11.383Z,100703.93
2018-05-26T12:53:39.099Z,100708.69
2018-05-26T12:56:06.912Z,100700.37
2018-05-26T12:58:34.683Z,100703.02
2018-05-26T13:01:02.647Z,100703.19
2018-05-26T13:03:30.366Z,100701.37
2018-05-26T13:05:58.176Z,100699.61
2018-05-26T13:08:25.940Z,100700.61
2018-05-26T13:10:53.643Z,100692.33
2018-05-26T13:13:21.369Z,100695.88
2018-05-26T13:15:49.152Z,100699.29
2018-05-26T13:18:16.898Z,100694.22
2018-05-26T13:20:44.737Z,100705.05
2018-05-26T13:23:12.479Z,100702.70
2018-05-26T13:25:40.291Z,100700.92
2018-05-26T13:28:08.014Z,100700.13
2018-05-26T13:30:35.923Z,100702.63
2018-05-26T13:33:03.570Z,100696.92
2018-05-26T13:35:31.174Z,100685.03
2018-05-26T13:37:58.824Z,100688.19
2018-05-26T13:40:26.572Z,100694.80
2018-05-26T13:42:54.336Z,100686.15
2018-05-26T13:45:22.060Z,100675.49
2018-05-26T13:47:49.878Z,100689.19
2018-05-26T13:50:17.696Z,100683.50
2018-05-26T13:52:45.496Z,100673.09
2018-05-26T13:55:13.367Z,100677.57
2018-05-26T13:57:42.145Z,100667.68
2018-05-26T14:00:09.916Z,100669.59
2018-05-26T14:02:37.886Z,100669.64
2018-05-26T14:05:05.625Z,100665.39
2018-05-26T14:07:33.414Z,100663.87
2018-05-26T14:10:01.179Z,100663.91
2018-05-26T14:12:28.901Z,100664.36
2018-05-26T14:14:56.605Z,100670.07
2018-05-26T14:17:24.371Z,100670.63
2018-05-26T14:19:52.593Z,100656.81
2018-05-26T14:22:20.413Z,100659.38
2018-05-26T14:24:48.238Z,100660.66
2018-05-26T14:27:16.005Z,100652.28
2018-05-26T14:29:43.809Z,100655.80
2018-05-26T14:32:11.471Z,100649.38
2018-05-26T14:34:39.245Z,100650.20
2018-05-26T14:37:07.100Z,100647.13
2018-05-26T14:39:34.864Z,100642.84
2018-05-26T14:42:02.583Z,100644.04
2018-05-26T14:44:30.393Z,100644.25
2018-05-26T14:46:58.260Z,100646.94
2018-05-26T14:49:25.921Z,100638.02
2018-05-26T14:51:53.790Z,100642.41
2018-05-26T14:54:21.554Z,100640.85
2018-05-26T14:56:49.416Z,100635.09
2018-05-26T14:59:17.185Z,100636.41
2018-05-26T15:01:45.053Z,100638.06
2018-05-26T15:04:12.816Z,100645.54
2018-05-26T15:06:40.683Z,100636.73
2018-05-26T15:09:08.449Z,100638.73
2018-05-26T15:11:36.213Z,100639.75
2018-05-26T15:14:05.400Z,100636.89
2018-05-26T15:16:33.047Z,100645.23
2018-05-26T15:19:00.793Z,100642.16
2018-05-26T15:21:28.602Z,100646.48
2018-05-26T15:23:56.327Z,100644.48
2018-05-26T15:26:24.130Z,100638.22
2018-05-26T15:28:51.896Z,100633.08
2018-05-26T15:31:20.328Z,100628.87
2018-05-26T15:33:48.142Z,100622.38
2018-05-26T15:36:15.907Z,100624.39
2018-05-26T15:38:43.673Z,100618.52
2018-05-26T15:41:11.399Z,100616.87
2018-05-26T15:43:39.200Z,100615.81
2018-05-26T15:46:06.862Z,100612.53
2018-05-26T15:48:34.631Z,100614.13
2018-05-26T15:51:02.343Z,100605.76
2018-05-26T15:53:30.156Z,100608.75
2018-05-26T15:55:57.877Z,100604.97
2018-05-26T15:58:25.684Z,100609.22
2018-05-26T16:00:53.450Z,100611.47
2018-05-26T16:03:21.316Z,100607.86
2018-05-26T16:05:48.972Z,100611.78
2018-05-26T16:08:16.701Z,100608.44
2018-05-26T16:10:44.508Z,100606.94
2018-05-26T16:13:12.376Z,100605.38
2018-05-26T16:15:40.091Z,100610.65
2018-05-26T16:18:07.904Z,100606.52
2018-05-26T16:20:35.667Z,100612.31
2018-05-26T16:23:03.534Z,100601.88
2018-05-26T16:25:31.300Z,100612.48
2018-05-26T16:27:59.001Z,100611.92
2018-05-26T16:30:26.828Z,100606.09
2018-05-26T16:32:54.687Z,100603.08
2018-05-26T16:35:22.403Z,100601.90
2018-05-26T16:37:50.224Z,100605.52
2018-05-26T16:40:17.887Z,100601.75
2018-05-26T16:42:45.758Z,100606.02
2018-05-26T16:45:13.473Z,100606.95
2018-05-26T16:47:41.283Z,100605.12
2018-05-26T16:50:09.008Z,100601.97
2018-05-26T16:52:36.813Z,100603.47
2018-05-26T16:55:04.575Z,100605.88
2018-05-26T16:57:32.286Z,100601.94
2018-05-26T16:59:59.900Z,100610.75
2018-05-26T17:02:27.561Z,100608.28
2018-05-26T17:04:55.328Z,100612.23
2018-05-26T17:07:23.092Z,100606.48
2018-05-26T17:09:50.870Z,100599.67
2018-05-26T17:12:18.722Z,100603.91
2018-05-26T17:14:46.429Z,100602.82
2018-05-26T17:17:14.253Z,100607.25
2018-05-26T17:19:41.914Z,100605.88
2018-05-26T17:22:09.781Z,100599.59
2018-05-26T17:24:37.497Z,100609.52
2018-05-26T17:27:05.201Z,100600.17
2018-05-26T17:29:32.932Z,100596.97
2018-05-26T17:32:00.633Z,100591.40
2018-05-26T17:34:28.394Z,100592.98
2018-05-26T17:36:56.162Z,100590.73
2018-05-26T17:39:23.876Z,100587.45
2018-05-26T17:41:51.590Z,100587.08
2018-05-26T17:44:19.356Z,100584.66
2018-05-26T17:46:47.222Z,100586.37
2018-05-26T17:49:14.889Z,100590.22
2018-05-26T17:51:42.750Z,100594.47
2018-05-26T17:54:10.413Z,100583.16
2018-05-26T17:56:38.078Z,100588.16
2018-05-26T17:59:05.941Z,100587.42
2018-05-26T18:01:33.706Z,100583.34
2018-05-26T18:04:01.471Z,100591.23
2018-05-26T18:06:29.235Z,100590.04
2018-05-26T18:08:57.104Z,100597.34
2018-05-26T18:11:24.765Z,100602.98
2018-05-26T18:13:52.529Z,100591.18
2018-05-26T18:16:20.287Z,100590.77
2018-05-26T18:18:48.003Z,100599.59
2018-05-26T18:21:15.826Z,100595.61
2018-05-26T18:23:43.792Z,100600.83
2018-05-26T18:26:11.504Z,100612.21
2018-05-26T18:28:39.261Z,100607.00
2018-05-26T18:31:07.196Z,100605.50
2018-05-26T18:33:35.006Z,100608.53
2018-05-26T18:36:02.821Z,100612.98
2018-05-26T18:38:30.688Z,100610.39
2018-05-26T18:40:58.405Z,100602.75
2018-05-26T18:43:26.216Z,100607.53
2018-05-26T18:45:53.880Z,100620.41
2018-05-26T18:48:21.641Z,100613.70
2018-05-26T18:50:49.352Z,100622.20
2018-05-26T18:53:17.170Z,100612.56
2018-05-26T18:55:44.885Z,100613.98
2018-05-26T18:58:12.653Z,100616.05
2018-05-26T19:00:40.465Z,100616.43
2018-05-26T19:03:08.287Z,100616.45
2018-05-26T19:05:36.097Z,100618.83
2018-05-26T19:08:03.963Z,100623.56
2018-05-26T19:10:31.727Z,100628.12
2018-05-26T19:12:59.492Z,100626.72
2018-05-26T19:15:27.197Z,100624.73
2018-05-26T19:17:55.020Z,100619.73
2018-05-26T19:20:22.787Z,100619.66
2018-05-26T19:22:50.558Z,100624.93
2018-05-26T19:25:18.264Z,100635.18
2018-05-26T19:27:46.081Z,100644.20
2018-05-26T19:30:13.947Z,100636.53
2018-05-26T19:32:41.710Z,100637.58
2018-05-26T19:35:09.435Z,100639.61
2018-05-26T19:37:37.244Z,100638.48
2018-05-26T19:40:05.004Z,100643.43
2018-05-26T19:42:32.814Z,100647.14
2018-05-26T19:45:00.636Z,100646.25
2018-05-26T19:47:28.370Z,100640.16
2018-05-26T19:49:56.215Z,100649.70
2018-05-26T19:52:23.828Z,100652.27
2018-05-26T19:54:51.547Z,100652.67
2018-05-26T19:57:19.357Z,100652.61
2018-05-26T19:59:47.145Z,100652.81
2018-05-26T20:02:14.988Z,100655.55
2018-05-26T20:04:42.753Z,100648.27
2018-05-26T20:07:10.458Z,100650.83
2018-05-26T20:09:38.177Z,100646.61
2018-05-26T20:12:05.944Z,100650.68
2018-05-26T20:14:33.707Z,100645.12
2018-05-26T20:17:01.427Z,100654.91
2018-05-26T20:19:29.144Z,100657.34
2018-05-26T20:21:56.835Z,100658.42
2018-05-26T20:24:24.653Z,100658.06
2018-05-26T20:26:52.427Z,100664.56
2018-05-26T20:29:20.288Z,100672.95
2018-05-26T20:31:47.950Z,100668.27
2018-05-26T20:34:15.618Z,100674.45
2018-05-26T20:36:43.340Z,100673.94
2018-05-26T20:39:11.047Z,100680.44
2018-05-26T20:41:38.704Z,100676.27
2018-05-26T20:44:06.368Z,100688.65
2018-05-26T20:46:34.134Z,100691.81
2018-05-26T20:49:01.898Z,100685.11
2018-05-26T20:51:29.663Z,100682.22
2018-05-26T20:53:57.428Z,100682.78
2018-05-26T20:56:25.194Z,100686.17
2018-05-26T20:58:53.060Z,100682.48
2018-05-26T21:01:21.336Z,100682.19
2018-05-26T21:03:49.082Z,100676.61
2018-05-26T21:06:16.865Z,100673.08
2018-05-26T21:08:44.630Z,100665.91
2018-05-26T21:11:12.354Z,100677.16
2018-05-26T21:13:40.263Z,100672.55
2018-05-26T21:16:07.988Z,100681.17
2018-05-26T21:18:35.792Z,100674.77
2018-05-26T21:21:03.558Z,100673.31
2018-05-26T21:23:31.415Z,100673.20
2018-05-26T21:25:59.189Z,100672.92
2018-05-26T21:28:27.055Z,100670.00
2018-05-26T21:30:54.818Z,100654.67
2018-05-26T21:33:22.698Z,100656.22
2018-05-26T21:35:50.449Z,100661.83
2018-05-26T21:38:18.315Z,100656.88
2018-05-26T21:40:46.156Z,100660.33
2018-05-26T21:43:13.875Z,100651.59
2018-05-26T21:45:41.609Z,100655.45
2018-05-26T21:48:09.477Z,100648.89
2018-05-26T21:50:37.140Z,100659.07
2018-05-26T21:53:04.902Z,100659.50
2018-05-26T21:55:32.668Z,100662.80
2018-05-26T21:58:00.540Z,100659.19
2018-05-26T22:00:28.402Z,100655.22
2018-05-26T22:02:56.063Z,100656.35
2018-05-26T22:05:23.804Z,100665.06
2018-05-26T22:07:51.592Z,100657.95
2018-05-26T22:10:19.310Z,100651.50
2018-05-26T22:12:47.122Z,100654.27
2018-05-26T22:15:14.886Z,100655.86
2018-05-26T22:17:42.613Z,100658.88
2018-05-26T22:20:10.312Z,100648.23
2018-05-26T22:22:38.023Z,100652.34
2018-05-26T22:25:05.889Z,100644.06
2018-05-26T22:27:34.483Z,100642.75
2018-05-26T22:30:02.182Z,100639.81
2018-05-26T22:32:30.015Z,100635.98
2018-05-26T22:34:57.720Z,100640.60
2018-05-26T22:37:25.427Z,100643.16
2018-05-26T22:39:53.555Z,100641.58
2018-05-26T22:42:21.319Z,100644.97
2018-05-26T22:44:49.084Z,100646.74
2018-05-26T22:47:16.851Z,100643.14
2018-05-26T22:49:44.614Z,100639.19
2018-05-26T22:52:12.378Z,100641.06
2018-05-26T22:54:40.143Z,100647.34
2018-05-26T22:57:07.909Z,100651.14
2018-05-26T22:59:35.673Z,100648.70
2018-05-26T23:02:03.542Z,100646.11
2018-05-26T23:04:31.389Z,100644.42
2018-05-26T23:06:59.193Z,100648.30
2018-05-26T23:09:27.141Z,100647.78
2018-05-26T23:11:54.903Z,100643.09
2018-05-26T23:14:22.728Z,100644.02
2018-05-26T23:16:50.538Z,100646.48
2018-05-26T23:19:18.303Z,100639.27
2018-05-26T23:21:46.065Z,100635.51
2018-05-26T23:24:13.932Z,100637.92
2018-05-26T23:26:41.695Z,100639.67
2018-05-26T23:29:09.409Z,100640.19
2018-05-26T23:31:37.122Z,100637.11
2018-05-26T23:34:04.843Z,100638.87
2018-05-26T23:36:32.653Z,100630.47
2018-05-26T23:39:00.519Z,100624.83
2018-05-26T23:41:28.243Z,100631.65
2018-05-26T23:43:56.051Z,100626.31
2018-05-26T23:46:23.752Z,100627.24
2018-05-26T23:48:51.570Z,100615.52
2018-05-26T23:51:19.286Z,100618.23
2018-05-26T23:53:47.106Z,100616.27
2018-05-26T23:56:14.871Z,100615.30
2018-05-26T23:58:42.738Z,100619.55
